sensor_id;sensor_type;location;lat;lon;timestamp;P1;durP1;ratioP1;P2;durP2;ratioP2
7941;SDS011;4016;50.758;7.150;2023-12-20T00:01:33;2.47;;;2.27;;
7941;SDS011;4016;50.758;7.150;2023-12-20T00:06:33;2.77;;;2.57;;
7941;SDS011;4016;50.758;7.150;2023-12-20T00:11:33;3.10;;;2.80;;
7941;SDS011;4016;50.758;7.150;2023-12-20T00:16:34;2.93;;;2.67;;
7941;SDS011;4016;50.758;7.150;2023-12-20T00:21:34;3.10;;;2.80;;
7941;SDS011;4016;50.758;7.150;2023-12-20T00:26:34;3.40;;;3.10;;
7941;SDS011;4016;50.758;7.150;2023-12-20T00:31:35;3.10;;;2.80;;
7941;SDS011;4016;50.758;7.150;2023-12-20T00:36:35;3.23;;;2.90;;
7941;SDS011;4016;50.758;7.150;2023-12-20T00:41:36;3.23;;;2.93;;
7941;SDS011;4016;50.758;7.150;2023-12-20T00:46:37;3.20;;;3.00;;
7941;SDS011;4016;50.758;7.150;2023-12-20T00:51:37;3.07;;;2.77;;
7941;SDS011;4016;50.758;7.150;2023-12-20T00:56:38;3.23;;;2.93;;
7941;SDS011;4016;50.758;7.150;2023-12-20T01:01:38;2.43;;;2.23;;
7941;SDS011;4016;50.758;7.150;2023-12-20T01:06:38;2.73;;;2.53;;
7941;SDS011;4016;50.758;7.150;2023-12-20T01:11:39;2.73;;;2.40;;
7941;SDS011;4016;50.758;7.150;2023-12-20T01:16:39;3.30;;;3.00;;
7941;SDS011;4016;50.758;7.150;2023-12-20T01:21:40;3.20;;;2.90;;
7941;SDS011;4016;50.758;7.150;2023-12-20T01:26:40;3.73;;;2.90;;
7941;SDS011;4016;50.758;7.150;2023-12-20T01:31:41;3.67;;;3.37;;
7941;SDS011;4016;50.758;7.150;2023-12-20T01:36:42;3.43;;;3.13;;
7941;SDS011;4016;50.758;7.150;2023-12-20T01:41:42;4.63;;;4.13;;
7941;SDS011;4016;50.758;7.150;2023-12-20T01:46:43;5.27;;;4.77;;
7941;SDS011;4016;50.758;7.150;2023-12-20T01:51:43;5.37;;;4.83;;
7941;SDS011;4016;50.758;7.150;2023-12-20T01:56:44;7.57;;;6.70;;
7941;SDS011;4016;50.758;7.150;2023-12-20T02:01:45;11.57;;;7.60;;
7941;SDS011;4016;50.758;7.150;2023-12-20T02:06:46;9.47;;;7.73;;
7941;SDS011;4016;50.758;7.150;2023-12-20T02:11:46;12.23;;;8.53;;
7941;SDS011;4016;50.758;7.150;2023-12-20T02:16:47;13.83;;;9.67;;
7941;SDS011;4016;50.758;7.150;2023-12-20T02:21:48;11.73;;;8.93;;
7941;SDS011;4016;50.758;7.150;2023-12-20T02:26:48;15.47;;;9.00;;
7941;SDS011;4016;50.758;7.150;2023-12-20T02:31:48;12.40;;;9.20;;
7941;SDS011;4016;50.758;7.150;2023-12-20T02:36:49;12.00;;;7.93;;
7941;SDS011;4016;50.758;7.150;2023-12-20T02:41:49;9.17;;;5.67;;
7941;SDS011;4016;50.758;7.150;2023-12-20T02:46:50;9.87;;;5.17;;
7941;SDS011;4016;50.758;7.150;2023-12-20T02:51:50;10.37;;;4.97;;
7941;SDS011;4016;50.758;7.150;2023-12-20T02:56:50;6.27;;;3.97;;
7941;SDS011;4016;50.758;7.150;2023-12-20T03:01:51;5.10;;;3.33;;
7941;SDS011;4016;50.758;7.150;2023-12-20T03:06:51;7.93;;;3.27;;
7941;SDS011;4016;50.758;7.150;2023-12-20T03:11:51;7.77;;;2.93;;
7941;SDS011;4016;50.758;7.150;2023-12-20T03:16:52;4.37;;;2.90;;
7941;SDS011;4016;50.758;7.150;2023-12-20T03:21:52;7.13;;;3.40;;
7941;SDS011;4016;50.758;7.150;2023-12-20T03:26:53;10.03;;;3.50;;
7941;SDS011;4016;50.758;7.150;2023-12-20T03:31:54;9.73;;;3.30;;
7941;SDS011;4016;50.758;7.150;2023-12-20T03:36:54;10.40;;;3.00;;
7941;SDS011;4016;50.758;7.150;2023-12-20T03:41:54;11.17;;;3.50;;
7941;SDS011;4016;50.758;7.150;2023-12-20T03:46:55;9.93;;;3.80;;
7941;SDS011;4016;50.758;7.150;2023-12-20T03:51:55;6.07;;;3.13;;
7941;SDS011;4016;50.758;7.150;2023-12-20T03:56:55;7.63;;;4.00;;
7941;SDS011;4016;50.758;7.150;2023-12-20T04:01:56;7.70;;;3.17;;
7941;SDS011;4016;50.758;7.150;2023-12-20T04:06:56;9.40;;;3.20;;
7941;SDS011;4016;50.758;7.150;2023-12-20T04:11:57;7.37;;;3.40;;
7941;SDS011;4016;50.758;7.150;2023-12-20T04:16:57;8.10;;;3.50;;
7941;SDS011;4016;50.758;7.150;2023-12-20T04:21:58;6.10;;;3.23;;
7941;SDS011;4016;50.758;7.150;2023-12-20T04:26:58;8.70;;;3.83;;
7941;SDS011;4016;50.758;7.150;2023-12-20T04:31:58;8.10;;;4.17;;
7941;SDS011;4016;50.758;7.150;2023-12-20T04:36:59;5.83;;;3.73;;
7941;SDS011;4016;50.758;7.150;2023-12-20T04:42:00;8.60;;;4.00;;
7941;SDS011;4016;50.758;7.150;2023-12-20T04:47:00;9.70;;;4.07;;
7941;SDS011;4016;50.758;7.150;2023-12-20T04:52:01;9.20;;;4.40;;
7941;SDS011;4016;50.758;7.150;2023-12-20T04:57:01;7.93;;;4.53;;
7941;SDS011;4016;50.758;7.150;2023-12-20T05:02:01;11.00;;;4.03;;
7941;SDS011;4016;50.758;7.150;2023-12-20T05:07:02;8.43;;;4.10;;
7941;SDS011;4016;50.758;7.150;2023-12-20T05:12:04;8.50;;;4.27;;
7941;SDS011;4016;50.758;7.150;2023-12-20T05:17:06;12.37;;;4.90;;
7941;SDS011;4016;50.758;7.150;2023-12-20T05:22:06;7.67;;;4.00;;
7941;SDS011;4016;50.758;7.150;2023-12-20T05:27:07;16.17;;;5.37;;
7941;SDS011;4016;50.758;7.150;2023-12-20T05:32:08;9.37;;;4.73;;
7941;SDS011;4016;50.758;7.150;2023-12-20T05:37:08;8.07;;;4.20;;
7941;SDS011;4016;50.758;7.150;2023-12-20T05:42:09;10.23;;;4.10;;
7941;SDS011;4016;50.758;7.150;2023-12-20T05:47:09;9.53;;;4.27;;
7941;SDS011;4016;50.758;7.150;2023-12-20T05:52:09;6.57;;;4.17;;
7941;SDS011;4016;50.758;7.150;2023-12-20T05:57:10;9.13;;;4.67;;
7941;SDS011;4016;50.758;7.150;2023-12-20T06:02:10;9.90;;;4.07;;
7941;SDS011;4016;50.758;7.150;2023-12-20T06:07:14;6.63;;;3.63;;
7941;SDS011;4016;50.758;7.150;2023-12-20T06:12:15;7.83;;;4.57;;
7941;SDS011;4016;50.758;7.150;2023-12-20T06:17:15;10.00;;;4.40;;
7941;SDS011;4016;50.758;7.150;2023-12-20T06:22:16;8.80;;;3.50;;
7941;SDS011;4016;50.758;7.150;2023-12-20T06:27:17;9.60;;;4.23;;
7941;SDS011;4016;50.758;7.150;2023-12-20T06:32:17;8.03;;;3.70;;
7941;SDS011;4016;50.758;7.150;2023-12-20T06:37:17;8.27;;;4.43;;
7941;SDS011;4016;50.758;7.150;2023-12-20T06:42:18;9.50;;;4.03;;
7941;SDS011;4016;50.758;7.150;2023-12-20T06:47:18;5.97;;;3.50;;
7941;SDS011;4016;50.758;7.150;2023-12-20T06:52:18;14.03;;;4.40;;
7941;SDS011;4016;50.758;7.150;2023-12-20T06:57:19;11.03;;;3.93;;
7941;SDS011;4016;50.758;7.150;2023-12-20T07:02:19;8.00;;;3.93;;
7941;SDS011;4016;50.758;7.150;2023-12-20T07:07:21;9.30;;;4.33;;
7941;SDS011;4016;50.758;7.150;2023-12-20T07:12:23;9.40;;;4.03;;
7941;SDS011;4016;50.758;7.150;2023-12-20T07:17:23;11.83;;;4.00;;
7941;SDS011;4016;50.758;7.150;2023-12-20T07:22:23;7.13;;;3.77;;
7941;SDS011;4016;50.758;7.150;2023-12-20T07:27:24;8.53;;;4.03;;
7941;SDS011;4016;50.758;7.150;2023-12-20T07:32:24;7.93;;;4.20;;
7941;SDS011;4016;50.758;7.150;2023-12-20T07:37:25;7.27;;;3.70;;
7941;SDS011;4016;50.758;7.150;2023-12-20T07:42:25;10.00;;;4.23;;
7941;SDS011;4016;50.758;7.150;2023-12-20T07:47:26;9.07;;;3.73;;
7941;SDS011;4016;50.758;7.150;2023-12-20T07:52:26;14.30;;;4.70;;
7941;SDS011;4016;50.758;7.150;2023-12-20T07:57:28;11.73;;;3.90;;
7941;SDS011;4016;50.758;7.150;2023-12-20T08:02:29;10.13;;;4.03;;
7941;SDS011;4016;50.758;7.150;2023-12-20T08:07:30;8.67;;;4.10;;
7941;SDS011;4016;50.758;7.150;2023-12-20T08:12:30;7.00;;;3.90;;
7941;SDS011;4016;50.758;7.150;2023-12-20T08:17:31;7.17;;;3.50;;
7941;SDS011;4016;50.758;7.150;2023-12-20T08:22:31;9.77;;;3.80;;
7941;SDS011;4016;50.758;7.150;2023-12-20T08:27:31;10.87;;;4.07;;
7941;SDS011;4016;50.758;7.150;2023-12-20T08:32:32;10.37;;;3.27;;
7941;SDS011;4016;50.758;7.150;2023-12-20T08:37:32;9.30;;;3.87;;
7941;SDS011;4016;50.758;7.150;2023-12-20T08:42:33;10.17;;;3.70;;
7941;SDS011;4016;50.758;7.150;2023-12-20T08:47:33;11.20;;;4.07;;
7941;SDS011;4016;50.758;7.150;2023-12-20T08:52:33;6.03;;;3.93;;
7941;SDS011;4016;50.758;7.150;2023-12-20T08:57:34;14.07;;;3.87;;
7941;SDS011;4016;50.758;7.150;2023-12-20T09:02:34;11.97;;;4.20;;
7941;SDS011;4016;50.758;7.150;2023-12-20T09:07:37;9.80;;;4.07;;
7941;SDS011;4016;50.758;7.150;2023-12-20T09:12:38;6.13;;;3.63;;
7941;SDS011;4016;50.758;7.150;2023-12-20T09:17:40;14.20;;;3.80;;
7941;SDS011;4016;50.758;7.150;2023-12-20T09:22:41;8.93;;;4.33;;
7941;SDS011;4016;50.758;7.150;2023-12-20T09:27:42;9.10;;;3.93;;
7941;SDS011;4016;50.758;7.150;2023-12-20T09:32:43;10.83;;;3.77;;
7941;SDS011;4016;50.758;7.150;2023-12-20T09:37:43;8.53;;;3.63;;
7941;SDS011;4016;50.758;7.150;2023-12-20T09:42:51;16.87;;;4.00;;
7941;SDS011;4016;50.758;7.150;2023-12-20T09:47:57;10.93;;;3.60;;
7941;SDS011;4016;50.758;7.150;2023-12-20T09:52:58;7.50;;;3.57;;
7941;SDS011;4016;50.758;7.150;2023-12-20T09:58:02;6.27;;;3.43;;
7941;SDS011;4016;50.758;7.150;2023-12-20T10:03:02;12.27;;;3.40;;
7941;SDS011;4016;50.758;7.150;2023-12-20T10:08:05;9.30;;;3.90;;
7941;SDS011;4016;50.758;7.150;2023-12-20T10:13:10;7.03;;;3.93;;
7941;SDS011;4016;50.758;7.150;2023-12-20T10:18:12;11.20;;;3.87;;
7941;SDS011;4016;50.758;7.150;2023-12-20T10:23:12;9.53;;;3.50;;
7941;SDS011;4016;50.758;7.150;2023-12-20T10:28:15;11.90;;;3.53;;
7941;SDS011;4016;50.758;7.150;2023-12-20T10:33:23;4.97;;;2.97;;
7941;SDS011;4016;50.758;7.150;2023-12-20T10:38:28;12.17;;;3.67;;
7941;SDS011;4016;50.758;7.150;2023-12-20T10:43:30;9.33;;;3.20;;
7941;SDS011;4016;50.758;7.150;2023-12-20T10:48:32;10.33;;;3.40;;
7941;SDS011;4016;50.758;7.150;2023-12-20T10:53:34;10.43;;;3.57;;
7941;SDS011;4016;50.758;7.150;2023-12-20T10:58:36;8.17;;;3.60;;
7941;SDS011;4016;50.758;7.150;2023-12-20T11:03:48;13.87;;;3.80;;
7941;SDS011;4016;50.758;7.150;2023-12-20T11:14:20;10.23;;;3.80;;
7941;SDS011;4016;50.758;7.150;2023-12-20T11:19:27;11.07;;;3.50;;
7941;SDS011;4016;50.758;7.150;2023-12-20T11:24:28;6.40;;;3.57;;
7941;SDS011;4016;50.758;7.150;2023-12-20T11:29:35;13.53;;;3.83;;
7941;SDS011;4016;50.758;7.150;2023-12-20T11:34:36;10.30;;;3.90;;
7941;SDS011;4016;50.758;7.150;2023-12-20T11:39:36;9.47;;;3.90;;
7941;SDS011;4016;50.758;7.150;2023-12-20T11:44:37;10.07;;;3.50;;
7941;SDS011;4016;50.758;7.150;2023-12-20T11:49:38;7.23;;;3.50;;
7941;SDS011;4016;50.758;7.150;2023-12-20T11:54:38;11.33;;;3.97;;
7941;SDS011;4016;50.758;7.150;2023-12-20T11:59:39;9.27;;;3.63;;
7941;SDS011;4016;50.758;7.150;2023-12-20T12:04:42;7.43;;;3.80;;
7941;SDS011;4016;50.758;7.150;2023-12-20T12:09:43;9.10;;;3.53;;
7941;SDS011;4016;50.758;7.150;2023-12-20T12:14:44;8.00;;;3.77;;
7941;SDS011;4016;50.758;7.150;2023-12-20T12:19:45;6.10;;;3.60;;
7941;SDS011;4016;50.758;7.150;2023-12-20T12:24:46;7.53;;;3.73;;
7941;SDS011;4016;50.758;7.150;2023-12-20T12:30:00;6.73;;;3.93;;
7941;SDS011;4016;50.758;7.150;2023-12-20T12:35:03;4.57;;;2.97;;
7941;SDS011;4016;50.758;7.150;2023-12-20T12:40:09;5.37;;;3.27;;
7941;SDS011;4016;50.758;7.150;2023-12-20T12:45:11;6.00;;;3.40;;
7941;SDS011;4016;50.758;7.150;2023-12-20T12:50:12;8.90;;;3.03;;
7941;SDS011;4016;50.758;7.150;2023-12-20T12:55:12;8.13;;;3.50;;
7941;SDS011;4016;50.758;7.150;2023-12-20T13:00:13;8.10;;;3.20;;
7941;SDS011;4016;50.758;7.150;2023-12-20T13:05:13;7.27;;;4.07;;
7941;SDS011;4016;50.758;7.150;2023-12-20T13:10:14;5.40;;;3.37;;
7941;SDS011;4016;50.758;7.150;2023-12-20T13:15:16;9.50;;;3.50;;
7941;SDS011;4016;50.758;7.150;2023-12-20T13:20:17;8.70;;;3.97;;
7941;SDS011;4016;50.758;7.150;2023-12-20T13:25:17;8.00;;;4.13;;
7941;SDS011;4016;50.758;7.150;2023-12-20T13:30:17;7.90;;;3.80;;
7941;SDS011;4016;50.758;7.150;2023-12-20T13:35:18;5.70;;;3.60;;
7941;SDS011;4016;50.758;7.150;2023-12-20T13:40:20;11.63;;;3.67;;
7941;SDS011;4016;50.758;7.150;2023-12-20T13:45:20;10.93;;;4.43;;
7941;SDS011;4016;50.758;7.150;2023-12-20T13:50:21;6.07;;;4.00;;
7941;SDS011;4016;50.758;7.150;2023-12-20T13:55:21;9.87;;;4.37;;
7941;SDS011;4016;50.758;7.150;2023-12-20T14:00:25;7.93;;;4.60;;
7941;SDS011;4016;50.758;7.150;2023-12-20T14:05:25;6.20;;;3.63;;
7941;SDS011;4016;50.758;7.150;2023-12-20T14:10:27;6.73;;;3.83;;
7941;SDS011;4016;50.758;7.150;2023-12-20T14:15:27;10.27;;;4.70;;
7941;SDS011;4016;50.758;7.150;2023-12-20T14:20:28;7.07;;;4.63;;
7941;SDS011;4016;50.758;7.150;2023-12-20T14:25:29;8.40;;;4.00;;
7941;SDS011;4016;50.758;7.150;2023-12-20T14:30:31;8.97;;;3.63;;
7941;SDS011;4016;50.758;7.150;2023-12-20T14:35:32;3.80;;;2.93;;
7941;SDS011;4016;50.758;7.150;2023-12-20T14:40:32;4.37;;;3.60;;
7941;SDS011;4016;50.758;7.150;2023-12-20T14:45:33;3.53;;;2.70;;
7941;SDS011;4016;50.758;7.150;2023-12-20T14:50:33;2.60;;;2.37;;
7941;SDS011;4016;50.758;7.150;2023-12-20T14:55:34;3.37;;;2.33;;
7941;SDS011;4016;50.758;7.150;2023-12-20T15:00:35;3.40;;;2.20;;
7941;SDS011;4016;50.758;7.150;2023-12-20T15:05:35;4.63;;;2.60;;
7941;SDS011;4016;50.758;7.150;2023-12-20T15:10:36;4.63;;;3.10;;
7941;SDS011;4016;50.758;7.150;2023-12-20T15:15:36;3.70;;;2.80;;
7941;SDS011;4016;50.758;7.150;2023-12-20T15:20:37;4.07;;;3.00;;
7941;SDS011;4016;50.758;7.150;2023-12-20T15:25:38;5.67;;;3.20;;
7941;SDS011;4016;50.758;7.150;2023-12-20T15:30:38;3.33;;;2.53;;
7941;SDS011;4016;50.758;7.150;2023-12-20T15:35:39;5.37;;;2.90;;
7941;SDS011;4016;50.758;7.150;2023-12-20T15:40:39;5.87;;;3.23;;
7941;SDS011;4016;50.758;7.150;2023-12-20T15:45:39;5.90;;;3.50;;
7941;SDS011;4016;50.758;7.150;2023-12-20T15:50:40;6.97;;;3.63;;
7941;SDS011;4016;50.758;7.150;2023-12-20T15:55:40;6.93;;;3.77;;
7941;SDS011;4016;50.758;7.150;2023-12-20T16:00:41;5.93;;;3.53;;
7941;SDS011;4016;50.758;7.150;2023-12-20T16:05:42;6.10;;;3.80;;
7941;SDS011;4016;50.758;7.150;2023-12-20T16:10:42;5.90;;;3.63;;
7941;SDS011;4016;50.758;7.150;2023-12-20T16:15:42;9.30;;;3.67;;
7941;SDS011;4016;50.758;7.150;2023-12-20T16:20:43;6.37;;;3.50;;
7941;SDS011;4016;50.758;7.150;2023-12-20T16:25:43;6.80;;;3.80;;
7941;SDS011;4016;50.758;7.150;2023-12-20T16:30:43;8.67;;;4.30;;
7941;SDS011;4016;50.758;7.150;2023-12-20T16:35:44;5.33;;;3.57;;
7941;SDS011;4016;50.758;7.150;2023-12-20T16:40:44;6.10;;;3.60;;
7941;SDS011;4016;50.758;7.150;2023-12-20T16:45:45;9.87;;;3.47;;
7941;SDS011;4016;50.758;7.150;2023-12-20T16:50:46;8.23;;;3.93;;
7941;SDS011;4016;50.758;7.150;2023-12-20T16:55:46;11.10;;;4.13;;
7941;SDS011;4016;50.758;7.150;2023-12-20T17:00:47;5.17;;;3.90;;
7941;SDS011;4016;50.758;7.150;2023-12-20T17:05:47;6.87;;;3.90;;
7941;SDS011;4016;50.758;7.150;2023-12-20T17:10:48;8.93;;;4.43;;
7941;SDS011;4016;50.758;7.150;2023-12-20T17:15:48;6.33;;;4.80;;
7941;SDS011;4016;50.758;7.150;2023-12-20T17:20:48;6.70;;;3.97;;
7941;SDS011;4016;50.758;7.150;2023-12-20T17:25:49;6.90;;;4.30;;
7941;SDS011;4016;50.758;7.150;2023-12-20T17:30:50;4.33;;;3.50;;
7941;SDS011;4016;50.758;7.150;2023-12-20T17:35:50;9.20;;;4.60;;
7941;SDS011;4016;50.758;7.150;2023-12-20T17:40:51;6.97;;;3.80;;
7941;SDS011;4016;50.758;7.150;2023-12-20T17:45:51;6.13;;;4.27;;
7941;SDS011;4016;50.758;7.150;2023-12-20T17:50:52;10.40;;;5.10;;
7941;SDS011;4016;50.758;7.150;2023-12-20T17:55:52;12.43;;;4.63;;
7941;SDS011;4016;50.758;7.150;2023-12-20T18:00:52;7.70;;;4.97;;
7941;SDS011;4016;50.758;7.150;2023-12-20T18:05:53;7.93;;;4.40;;
7941;SDS011;4016;50.758;7.150;2023-12-20T18:10:53;11.83;;;5.33;;
7941;SDS011;4016;50.758;7.150;2023-12-20T18:15:54;6.87;;;4.93;;
7941;SDS011;4016;50.758;7.150;2023-12-20T18:20:54;7.17;;;4.40;;
7941;SDS011;4016;50.758;7.150;2023-12-20T18:25:55;8.63;;;4.37;;
7941;SDS011;4016;50.758;7.150;2023-12-20T18:30:55;13.40;;;5.13;;
7941;SDS011;4016;50.758;7.150;2023-12-20T18:35:55;8.67;;;4.20;;
7941;SDS011;4016;50.758;7.150;2023-12-20T18:40:56;8.33;;;5.20;;
7941;SDS011;4016;50.758;7.150;2023-12-20T18:45:56;10.40;;;4.03;;
7941;SDS011;4016;50.758;7.150;2023-12-20T18:50:57;8.17;;;4.40;;
7941;SDS011;4016;50.758;7.150;2023-12-20T18:55:58;5.93;;;4.03;;
7941;SDS011;4016;50.758;7.150;2023-12-20T19:00:58;6.50;;;3.83;;
7941;SDS011;4016;50.758;7.150;2023-12-20T19:06:00;9.50;;;5.13;;
7941;SDS011;4016;50.758;7.150;2023-12-20T19:11:02;9.43;;;4.20;;
7941;SDS011;4016;50.758;7.150;2023-12-20T19:16:03;8.83;;;4.67;;
7941;SDS011;4016;50.758;7.150;2023-12-20T19:21:04;7.90;;;3.90;;
7941;SDS011;4016;50.758;7.150;2023-12-20T19:26:07;6.60;;;3.50;;
7941;SDS011;4016;50.758;7.150;2023-12-20T19:31:09;7.93;;;3.90;;
7941;SDS011;4016;50.758;7.150;2023-12-20T19:36:11;8.03;;;3.43;;
7941;SDS011;4016;50.758;7.150;2023-12-20T19:41:11;5.73;;;3.87;;
7941;SDS011;4016;50.758;7.150;2023-12-20T19:46:12;5.83;;;3.40;;
7941;SDS011;4016;50.758;7.150;2023-12-20T19:51:12;5.37;;;3.37;;
7941;SDS011;4016;50.758;7.150;2023-12-20T19:56:14;4.47;;;3.10;;
7941;SDS011;4016;50.758;7.150;2023-12-20T20:01:15;3.73;;;2.90;;
7941;SDS011;4016;50.758;7.150;2023-12-20T20:06:15;4.67;;;3.17;;
7941;SDS011;4016;50.758;7.150;2023-12-20T20:11:16;7.63;;;3.80;;
7941;SDS011;4016;50.758;7.150;2023-12-20T20:16:16;4.20;;;3.07;;
7941;SDS011;4016;50.758;7.150;2023-12-20T20:21:16;6.20;;;3.80;;
7941;SDS011;4016;50.758;7.150;2023-12-20T20:26:17;3.23;;;2.87;;
7941;SDS011;4016;50.758;7.150;2023-12-20T20:31:17;4.87;;;2.73;;
7941;SDS011;4016;50.758;7.150;2023-12-20T20:36:17;6.50;;;2.70;;
7941;SDS011;4016;50.758;7.150;2023-12-20T20:41:18;4.47;;;2.50;;
7941;SDS011;4016;50.758;7.150;2023-12-20T20:46:18;2.70;;;2.50;;
7941;SDS011;4016;50.758;7.150;2023-12-20T20:51:20;5.20;;;2.30;;
7941;SDS011;4016;50.758;7.150;2023-12-20T20:56:20;4.03;;;2.60;;
7941;SDS011;4016;50.758;7.150;2023-12-20T21:01:21;3.97;;;2.50;;
7941;SDS011;4016;50.758;7.150;2023-12-20T21:06:21;6.37;;;2.60;;
7941;SDS011;4016;50.758;7.150;2023-12-20T21:11:22;5.80;;;2.30;;
7941;SDS011;4016;50.758;7.150;2023-12-20T21:16:22;4.87;;;2.43;;
7941;SDS011;4016;50.758;7.150;2023-12-20T21:21:23;4.40;;;2.30;;
7941;SDS011;4016;50.758;7.150;2023-12-20T21:26:24;8.37;;;2.80;;
7941;SDS011;4016;50.758;7.150;2023-12-20T21:31:24;2.80;;;2.10;;
7941;SDS011;4016;50.758;7.150;2023-12-20T21:36:24;2.70;;;2.00;;
7941;SDS011;4016;50.758;7.150;2023-12-20T21:41:25;3.40;;;2.23;;
7941;SDS011;4016;50.758;7.150;2023-12-20T21:46:25;4.10;;;2.07;;
7941;SDS011;4016;50.758;7.150;2023-12-20T21:51:26;2.30;;;1.57;;
7941;SDS011;4016;50.758;7.150;2023-12-20T21:56:26;6.83;;;2.37;;
7941;SDS011;4016;50.758;7.150;2023-12-20T22:01:27;5.30;;;2.20;;
7941;SDS011;4016;50.758;7.150;2023-12-20T22:06:27;4.73;;;1.73;;
7941;SDS011;4016;50.758;7.150;2023-12-20T22:11:28;2.17;;;1.70;;
7941;SDS011;4016;50.758;7.150;2023-12-20T22:16:29;2.43;;;1.53;;
7941;SDS011;4016;50.758;7.150;2023-12-20T22:21:29;2.67;;;1.53;;
7941;SDS011;4016;50.758;7.150;2023-12-20T22:26:30;3.47;;;2.07;;
7941;SDS011;4016;50.758;7.150;2023-12-20T22:31:30;2.73;;;1.37;;
7941;SDS011;4016;50.758;7.150;2023-12-20T22:36:31;2.07;;;1.50;;
7941;SDS011;4016;50.758;7.150;2023-12-20T22:41:31;1.80;;;1.47;;
7941;SDS011;4016;50.758;7.150;2023-12-20T22:46:32;2.70;;;1.63;;
7941;SDS011;4016;50.758;7.150;2023-12-20T22:51:33;2.93;;;1.67;;
7941;SDS011;4016;50.758;7.150;2023-12-20T22:56:34;1.97;;;1.67;;
7941;SDS011;4016;50.758;7.150;2023-12-20T23:01:34;1.53;;;1.43;;
7941;SDS011;4016;50.758;7.150;2023-12-20T23:06:34;2.00;;;1.73;;
7941;SDS011;4016;50.758;7.150;2023-12-20T23:11:35;3.13;;;1.40;;
7941;SDS011;4016;50.758;7.150;2023-12-20T23:16:36;1.57;;;1.10;;
7941;SDS011;4016;50.758;7.150;2023-12-20T23:21:37;3.70;;;2.10;;
7941;SDS011;4016;50.758;7.150;2023-12-20T23:26:37;1.43;;;1.00;;
7941;SDS011;4016;50.758;7.150;2023-12-20T23:31:38;1.53;;;1.20;;
7941;SDS011;4016;50.758;7.150;2023-12-20T23:36:38;1.20;;;1.10;;
7941;SDS011;4016;50.758;7.150;2023-12-20T23:41:39;1.20;;;1.10;;
7941;SDS011;4016;50.758;7.150;2023-12-20T23:46:39;1.27;;;1.17;;
7941;SDS011;4016;50.758;7.150;2023-12-20T23:51:39;2.00;;;1.20;;
7941;SDS011;4016;50.758;7.150;2023-12-20T23:56:41;0.93;;;0.90;;
